aviador You're here:

EKKA Decoded Metar

KARUP in DENMARK
Report Time2018-02-17 23:20:00
UTC Time2018-02-17 23:41:45
Flight Rules mvfr MVFR
Wind170° at 03 kt
W.Decomp.*RWY 14: 2.6 kt HW 1.5 kt RCW
RWY 22: 1.9 kt HW 2.3 kt LCW
RWY 09: 0.6 kt HW 2.9 kt RCW
W.Rank170° ranks 15
Current wind is below 170° avg. (6.2)
Visibility6000 m
Phenomena:N/A
Clouds:N/A
CeilingNone
Temp-1°C (ISA -16)
Dew Point-1°C (100% RH)
AAT-4.2°C
QNH1025 hPa
Density Alt-2,077 ft
Elevation171 ft
Report Wrong Elevation
Raw Report
EKKA 172320Z AUTO 17003KT 6000NDV NCD M01/M01 Q1025=

Extra information for EKKA:More info

Metar Taf Metar & Taf Last 4 Metars F.Rules Stats Wind Profile Meteogram Temp Stats Airport Information Weather charts Add Link Nearby VenuesMetar ALERT Operation Metar Decoded Social comments